createdAt,value
2023-04-18T00:00:29.326Z,27.99
2023-04-18T00:01:28.310Z,25.29
2023-04-18T00:02:28.470Z,28.94
2023-04-18T00:03:29.638Z,29.49
2023-04-18T00:04:28.516Z,29.08
2023-04-18T00:05:28.461Z,30.33
2023-04-18T00:06:29.379Z,29.30
2023-04-18T00:07:28.637Z,25.85
2023-04-18T00:08:28.391Z,26.92
2023-04-18T00:09:29.469Z,30.71
2023-04-18T00:10:29.487Z,30.34
2023-04-18T00:11:29.606Z,27.81
2023-04-18T00:12:29.482Z,26.80
2023-04-18T00:13:29.490Z,29.90
2023-04-18T00:14:29.607Z,26.39
2023-04-18T00:15:29.571Z,31.95
2023-04-18T00:16:29.505Z,29.09
2023-04-18T00:17:29.535Z,27.88
2023-04-18T00:18:29.486Z,30.12
2023-04-18T00:19:29.528Z,27.58
2023-04-18T00:20:29.485Z,28.81
2023-04-18T00:21:28.499Z,25.38
2023-04-18T00:22:29.538Z,29.53
2023-04-18T00:23:29.517Z,28.49
2023-04-18T00:24:29.551Z,27.07
2023-04-18T00:25:29.560Z,30.88
2023-04-18T00:26:29.540Z,29.15
2023-04-18T00:27:28.589Z,27.19
2023-04-18T00:28:28.559Z,30.16
2023-04-18T00:29:28.661Z,28.17
2023-04-18T00:30:28.572Z,27.88
2023-04-18T00:31:28.614Z,25.00
2023-04-18T00:32:28.642Z,29.30
2023-04-18T00:33:29.597Z,31.14
2023-04-18T00:34:28.618Z,31.88
2023-04-18T00:35:28.616Z,28.91
2023-04-18T00:36:29.643Z,27.94
2023-04-18T00:37:29.657Z,30.95
2023-04-18T00:38:29.650Z,28.46
2023-04-18T00:39:29.666Z,28.58
2023-04-18T00:40:29.673Z,31.13
2023-04-18T00:41:28.666Z,30.63
2023-04-18T00:42:28.701Z,28.33
2023-04-18T00:43:28.690Z,29.43
2023-04-18T00:44:28.703Z,27.17
2023-04-18T00:45:29.751Z,27.65
2023-04-18T00:46:29.764Z,29.69
2023-04-18T00:47:28.806Z,31.08
2023-04-18T00:48:29.763Z,27.26
2023-04-18T00:49:28.779Z,29.21
2023-04-18T00:50:29.781Z,28.40
2023-04-18T00:51:28.786Z,27.39
2023-04-18T00:52:29.816Z,27.82
2023-04-18T00:53:28.926Z,28.58
2023-04-18T00:54:29.896Z,31.18
2023-04-18T00:55:29.907Z,24.90
2023-04-18T00:56:29.850Z,32.36
2023-04-18T00:57:29.849Z,30.47
2023-04-18T00:58:29.861Z,29.50
2023-04-18T00:59:28.877Z,28.52
2023-04-18T01:00:29.885Z,28.29
2023-04-18T01:01:29.960Z,31.34
2023-04-18T01:02:30.075Z,29.40
2023-04-18T01:03:30.289Z,28.49
2023-04-18T01:04:30.095Z,29.07
2023-04-18T01:05:28.950Z,27.09
2023-04-18T01:06:29.982Z,27.47
2023-04-18T01:07:30.023Z,30.78
2023-04-18T01:08:30.006Z,29.55
2023-04-18T01:09:30.073Z,27.65
2023-04-18T01:10:30.055Z,28.59
2023-04-18T01:11:30.155Z,26.39
2023-04-18T01:12:30.157Z,30.31
2023-04-18T01:13:30.268Z,29.62
2023-04-18T01:14:31.051Z,27.65
2023-04-18T01:15:30.377Z,26.44
2023-04-18T01:16:30.300Z,28.88
2023-04-18T01:17:30.261Z,26.56
2023-04-18T01:18:30.262Z,28.07
2023-04-18T01:19:30.232Z,29.16
2023-04-18T01:20:30.261Z,28.15
2023-04-18T01:21:29.354Z,28.34
2023-04-18T01:22:29.258Z,28.94
2023-04-18T01:23:29.240Z,28.77
2023-04-18T01:24:30.207Z,29.05
2023-04-18T01:25:30.214Z,30.15
2023-04-18T01:26:30.253Z,29.51
2023-04-18T01:27:30.250Z,29.97
2023-04-18T01:28:29.271Z,30.59
2023-04-18T01:29:29.284Z,28.99
2023-04-18T01:30:30.299Z,27.96
2023-04-18T01:31:30.338Z,30.17
2023-04-18T01:32:29.360Z,28.05
2023-04-18T01:33:29.374Z,28.05
2023-04-18T01:34:30.368Z,26.22
2023-04-18T01:35:30.403Z,28.66
2023-04-18T01:36:30.427Z,27.50
2023-04-18T01:37:30.423Z,25.51
2023-04-18T01:38:30.584Z,29.87
2023-04-18T01:39:30.562Z,27.87
2023-04-18T01:40:29.471Z,28.03
2023-04-18T01:41:30.565Z,27.90
2023-04-18T01:42:29.554Z,26.94
2023-04-18T01:43:30.520Z,27.14
2023-04-18T01:44:30.558Z,30.26
2023-04-18T01:45:30.474Z,28.68
2023-04-18T01:46:29.470Z,28.05
2023-04-18T01:47:29.481Z,29.82
2023-04-18T01:48:30.468Z,26.71
2023-04-18T01:49:30.504Z,29.72
2023-04-18T01:50:30.483Z,31.38
2023-04-18T01:51:29.496Z,32.08
2023-04-18T01:52:30.518Z,26.56
2023-04-18T01:53:30.499Z,26.89
2023-04-18T01:54:29.484Z,25.39
2023-04-18T01:55:29.483Z,25.63
2023-04-18T01:56:30.495Z,28.82
2023-04-18T01:57:30.510Z,28.87
2023-04-18T01:58:30.514Z,27.37
2023-04-18T01:59:29.520Z,25.68
2023-04-18T02:00:30.550Z,31.21
2023-04-18T02:01:30.504Z,30.57
2023-04-18T02:02:30.685Z,28.02
2023-04-18T02:03:30.881Z,25.64
2023-04-18T02:04:30.534Z,28.63
2023-04-18T02:05:30.565Z,28.16
2023-04-18T02:06:30.546Z,31.15
2023-04-18T02:07:29.538Z,29.40
2023-04-18T02:08:29.538Z,28.57
2023-04-18T02:09:30.534Z,28.33
2023-04-18T02:10:30.511Z,26.97
2023-04-18T02:11:30.523Z,31.41
2023-04-18T02:12:30.507Z,29.76
2023-04-18T02:13:30.517Z,30.75
2023-04-18T02:14:30.507Z,28.60
2023-04-18T02:15:30.542Z,27.80
2023-04-18T02:16:30.598Z,27.54
2023-04-18T02:17:30.545Z,28.04
2023-04-18T02:18:30.515Z,28.57
2023-04-18T02:19:30.509Z,28.39
2023-04-18T02:20:29.496Z,27.98
2023-04-18T02:21:29.605Z,25.00
2023-04-18T02:22:29.518Z,28.81
2023-04-18T02:23:30.516Z,28.97
2023-04-18T02:24:30.524Z,27.77
2023-04-18T02:25:30.545Z,27.37
2023-04-18T02:26:29.536Z,26.04
2023-04-18T02:27:29.573Z,28.62
2023-04-18T02:28:30.556Z,29.57
2023-04-18T02:29:29.583Z,27.85
2023-04-18T02:30:30.603Z,29.31
2023-04-18T02:31:30.672Z,29.98
2023-04-18T02:32:29.642Z,28.75
2023-04-18T02:33:30.623Z,25.77
2023-04-18T02:34:29.747Z,26.72
2023-04-18T02:35:30.782Z,25.39
2023-04-18T02:36:29.837Z,29.87
2023-04-18T02:37:29.926Z,28.61
2023-04-18T02:38:30.962Z,30.35
2023-04-18T02:39:30.956Z,28.49
2023-04-18T02:40:30.984Z,25.00
2023-04-18T02:41:30.064Z,29.47
2023-04-18T02:42:30.145Z,30.58
2023-04-18T02:43:30.155Z,26.07
2023-04-18T02:44:30.281Z,27.44
2023-04-18T02:45:30.183Z,28.86
2023-04-18T02:46:31.325Z,25.85
2023-04-18T02:47:33.311Z,28.05
2023-04-18T02:48:31.292Z,28.22
2023-04-18T02:49:31.227Z,28.45
2023-04-18T02:50:31.257Z,26.26
2023-04-18T02:51:30.229Z,28.06
2023-04-18T02:52:31.269Z,27.46
2023-04-18T02:53:31.191Z,28.45
2023-04-18T02:54:31.210Z,27.39
2023-04-18T02:55:31.875Z,29.58
2023-04-18T02:56:31.191Z,26.19
2023-04-18T02:57:31.271Z,27.09
2023-04-18T02:58:31.240Z,27.45
2023-04-18T02:59:31.233Z,29.94
2023-04-18T03:00:31.324Z,26.72
2023-04-18T03:01:31.354Z,25.34
2023-04-18T03:02:30.503Z,26.44
2023-04-18T03:03:31.482Z,27.51
2023-04-18T03:04:31.432Z,27.57
2023-04-18T03:05:30.427Z,28.98
2023-04-18T03:06:30.453Z,28.21
2023-04-18T03:07:31.568Z,28.36
2023-04-18T03:08:31.560Z,25.62
2023-04-18T03:09:30.626Z,27.61
2023-04-18T03:10:31.667Z,28.80
2023-04-18T03:11:30.680Z,27.99
2023-04-18T03:12:31.694Z,30.99
2023-04-18T03:13:31.718Z,29.17
2023-04-18T03:14:30.796Z,26.44
2023-04-18T03:15:31.893Z,30.94
2023-04-18T03:16:31.843Z,29.20
2023-04-18T03:17:30.927Z,29.68
2023-04-18T03:18:31.937Z,27.82
2023-04-18T03:19:30.975Z,27.96
2023-04-18T03:20:31.009Z,27.78
2023-04-18T03:21:32.076Z,29.33
2023-04-18T03:22:31.081Z,28.80
2023-04-18T03:23:32.185Z,28.00
2023-04-18T03:24:32.157Z,26.47
2023-04-18T03:25:31.211Z,26.78
2023-04-18T03:26:32.226Z,26.46
2023-04-18T03:27:32.303Z,28.99
2023-04-18T03:28:32.312Z,28.62
2023-04-18T03:29:31.320Z,27.87
2023-04-18T03:30:32.358Z,28.92
2023-04-18T03:31:32.426Z,29.13
2023-04-18T03:32:31.412Z,28.16
2023-04-18T03:33:32.435Z,30.38
2023-04-18T03:34:32.476Z,27.90
2023-04-18T03:35:31.497Z,27.82
2023-04-18T03:36:31.533Z,27.64
2023-04-18T03:37:32.587Z,25.56
2023-04-18T03:38:32.603Z,27.52
2023-04-18T03:39:32.667Z,26.97
2023-04-18T03:40:32.899Z,26.48
2023-04-18T03:41:32.799Z,27.94
2023-04-18T03:42:31.786Z,31.14
2023-04-18T03:43:32.835Z,29.60
2023-04-18T03:44:31.896Z,30.59
2023-04-18T03:45:32.948Z,27.76
2023-04-18T03:46:33.058Z,30.30
2023-04-18T03:47:32.066Z,27.81
2023-04-18T03:48:33.083Z,27.47
2023-04-18T03:49:33.130Z,32.95
2023-04-18T03:50:33.178Z,31.29
2023-04-18T03:51:33.214Z,29.62
2023-04-18T03:52:32.269Z,27.93
2023-04-18T03:53:33.284Z,30.58
2023-04-18T03:54:32.336Z,30.67
2023-04-18T03:55:32.396Z,31.89
2023-04-18T03:56:33.462Z,27.89
2023-04-18T03:57:33.496Z,29.41
2023-04-18T03:58:32.519Z,28.65
2023-04-18T03:59:32.567Z,27.62
2023-04-18T04:00:32.640Z,31.23
2023-04-18T04:01:33.714Z,27.52
2023-04-18T04:02:33.867Z,30.79
2023-04-18T04:03:33.887Z,31.32
2023-04-18T04:04:32.936Z,28.27
2023-04-18T04:05:33.943Z,28.32
2023-04-18T04:06:33.866Z,30.67
2023-04-18T04:07:33.944Z,27.82
2023-04-18T04:08:34.077Z,29.48
2023-04-18T04:09:33.104Z,31.34
2023-04-18T04:10:34.149Z,30.46
2023-04-18T04:11:33.149Z,31.71
2023-04-18T04:12:34.153Z,25.49
2023-04-18T04:13:34.232Z,28.09
2023-04-18T04:14:34.346Z,26.86
2023-04-18T04:15:34.319Z,31.61
2023-04-18T04:16:34.398Z,29.30
2023-04-18T04:17:33.531Z,28.69
2023-04-18T04:18:33.459Z,31.95
2023-04-18T04:19:33.487Z,29.96
2023-04-18T04:20:34.614Z,31.01
2023-04-18T04:21:34.549Z,29.88
2023-04-18T04:22:34.725Z,31.40
2023-04-18T04:23:34.764Z,26.76
2023-04-18T04:24:34.769Z,28.91
2023-04-18T04:25:34.925Z,30.75
2023-04-18T04:26:33.997Z,33.22
2023-04-18T04:27:34.847Z,30.18
2023-04-18T04:28:34.980Z,29.41
2023-04-18T04:29:34.992Z,31.57
2023-04-18T04:30:34.987Z,32.08
2023-04-18T04:31:34.106Z,30.75
2023-04-18T04:32:35.263Z,27.88
2023-04-18T04:33:35.205Z,29.46
2023-04-18T04:34:34.203Z,28.00
2023-04-18T04:35:35.295Z,30.44
2023-04-18T04:36:35.264Z,27.84
2023-04-18T04:37:35.326Z,29.28
2023-04-18T04:38:35.365Z,25.65
2023-04-18T04:39:34.382Z,28.17
2023-04-18T04:40:35.443Z,25.76
2023-04-18T04:41:34.463Z,27.20
2023-04-18T04:42:35.467Z,27.42
2023-04-18T04:43:35.505Z,29.37
2023-04-18T04:44:34.672Z,28.16
2023-04-18T04:45:34.677Z,25.45
2023-04-18T04:46:35.679Z,30.30
2023-04-18T04:47:34.765Z,28.61
2023-04-18T04:48:35.762Z,27.58
2023-04-18T04:49:35.849Z,28.47
2023-04-18T04:50:35.851Z,26.39
2023-04-18T04:51:35.834Z,31.19
2023-04-18T04:52:35.912Z,26.36
2023-04-18T04:53:35.910Z,28.52
2023-04-18T04:54:35.988Z,31.72
2023-04-18T04:55:35.994Z,28.60
2023-04-18T04:56:36.078Z,28.99
2023-04-18T04:57:35.128Z,30.55
2023-04-18T04:58:36.196Z,28.99
2023-04-18T04:59:36.247Z,29.05
2023-04-18T05:00:36.334Z,27.56
2023-04-18T05:01:35.432Z,28.37
2023-04-18T05:02:36.644Z,30.48
2023-04-18T05:03:36.795Z,25.00
2023-04-18T05:04:36.670Z,25.00
2023-04-18T05:05:36.617Z,27.61
2023-04-18T05:06:35.671Z,26.14
2023-04-18T05:07:35.753Z,33.10
2023-04-18T05:08:35.783Z,26.93
2023-04-18T05:09:36.910Z,30.28
2023-04-18T05:10:35.928Z,30.46
2023-04-18T05:11:36.997Z,29.93
2023-04-18T05:12:37.065Z,28.97
2023-04-18T05:13:36.099Z,26.86
2023-04-18T05:14:37.219Z,30.07
2023-04-18T05:15:37.274Z,26.44
2023-04-18T05:16:37.339Z,28.40
2023-04-18T05:17:36.419Z,30.86
2023-04-18T05:18:37.426Z,31.12
2023-04-18T05:19:36.474Z,32.74
2023-04-18T05:20:36.556Z,28.65
2023-04-18T05:21:37.618Z,26.25
2023-04-18T05:22:36.680Z,31.06
2023-04-18T05:23:36.707Z,33.41
2023-04-18T05:24:37.811Z,32.48
2023-04-18T05:25:36.845Z,30.19
2023-04-18T05:26:37.915Z,30.72
2023-04-18T05:27:37.945Z,28.49
2023-04-18T05:28:38.519Z,27.82
2023-04-18T05:29:37.087Z,27.60
2023-04-18T05:30:38.157Z,25.00
2023-04-18T05:31:37.198Z,31.22
2023-04-18T05:32:37.329Z,31.79
2023-04-18T05:33:38.300Z,32.29
2023-04-18T05:34:39.003Z,31.92
2023-04-18T05:35:38.512Z,37.26
2023-04-18T05:36:44.309Z,42.50
2023-04-18T05:37:38.312Z,42.88
2023-04-18T05:38:37.297Z,44.27
2023-04-18T05:39:38.330Z,47.09
2023-04-18T05:40:38.283Z,53.76
2023-04-18T05:41:38.268Z,66.86
2023-04-18T05:42:38.258Z,74.31
2023-04-18T05:43:38.257Z,86.06
2023-04-18T05:44:37.252Z,91.44
2023-04-18T05:45:37.247Z,93.41
2023-04-18T05:46:37.314Z,92.57
2023-04-18T05:47:38.254Z,100.00
2023-04-18T05:48:37.284Z,101.92
2023-04-18T05:49:38.209Z,115.85
2023-04-18T05:50:38.202Z,126.92
2023-04-18T05:51:38.201Z,132.70
2023-04-18T05:52:37.193Z,145.12
2023-04-18T05:53:38.185Z,151.82
2023-04-18T05:54:38.175Z,167.24
2023-04-18T05:55:38.169Z,171.14
2023-04-18T05:56:38.166Z,177.45
2023-04-18T05:57:38.172Z,183.49
2023-04-18T05:58:38.148Z,188.22
2023-04-18T05:59:37.174Z,193.49
2023-04-18T06:00:38.552Z,203.09
2023-04-18T06:01:38.137Z,202.29
2023-04-18T06:02:38.282Z,216.10
2023-04-18T06:03:38.402Z,218.70
2023-04-18T06:04:38.338Z,220.95
2023-04-18T06:05:38.391Z,227.69
2023-04-18T06:06:38.120Z,235.55
2023-04-18T06:07:38.127Z,239.58
2023-04-18T06:08:38.080Z,240.77
2023-04-18T06:09:38.073Z,243.02
2023-04-18T06:10:39.232Z,242.80
2023-04-18T06:11:37.057Z,245.22
2023-04-18T06:12:38.080Z,248.25
2023-04-18T06:13:37.145Z,249.79
2023-04-18T06:14:38.161Z,250.35
2023-04-18T06:15:38.209Z,249.55
2023-04-18T06:16:38.347Z,250.00
2023-04-18T06:17:37.333Z,247.78
2023-04-18T06:18:38.377Z,248.34
2023-04-18T06:19:37.391Z,249.08
2023-04-18T06:20:38.452Z,248.16
2023-04-18T06:21:38.460Z,249.75
2023-04-18T06:22:38.569Z,247.61
2023-04-18T06:23:38.599Z,250.00
2023-04-18T06:24:37.573Z,246.86
2023-04-18T06:25:38.625Z,250.00
2023-04-18T06:26:37.643Z,248.61
2023-04-18T06:27:38.673Z,248.10
2023-04-18T06:28:38.693Z,249.10
2023-04-18T06:29:38.741Z,249.53
2023-04-18T06:30:38.789Z,249.27
2023-04-18T06:31:37.845Z,250.00
2023-04-18T06:32:38.853Z,249.49
2023-04-18T06:33:38.875Z,250.00
2023-04-18T06:34:38.890Z,250.00
2023-04-18T06:35:38.922Z,249.14
2023-04-18T06:36:39.034Z,250.00
2023-04-18T06:37:37.991Z,248.81
2023-04-18T06:38:39.035Z,250.00
2023-04-18T06:39:39.034Z,250.00
2023-04-18T06:40:39.066Z,247.39
2023-04-18T06:41:38.095Z,247.24
2023-04-18T06:42:38.108Z,249.19
2023-04-18T06:43:41.129Z,247.57
2023-04-18T06:44:39.147Z,247.81
2023-04-18T06:45:39.179Z,248.44
2023-04-18T06:46:38.142Z,248.94
2023-04-18T06:47:39.147Z,249.52
2023-04-18T06:48:39.104Z,247.72
2023-04-18T06:49:38.090Z,244.44
2023-04-18T06:50:38.116Z,242.52
2023-04-18T06:51:38.094Z,238.08
2023-04-18T06:52:38.106Z,198.38
2023-04-18T06:53:39.068Z,161.85
2023-04-18T06:54:39.072Z,133.64
2023-04-18T06:55:39.550Z,122.41
2023-04-18T06:56:39.076Z,129.16
2023-04-18T06:57:39.043Z,131.14
2023-04-18T06:58:38.029Z,136.70
2023-04-18T06:59:39.035Z,141.91
2023-04-18T07:00:39.020Z,144.01
2023-04-18T07:01:39.091Z,136.94
2023-04-18T07:02:39.110Z,131.46
2023-04-18T07:03:39.144Z,129.21
2023-04-18T07:04:39.267Z,130.42
2023-04-18T07:05:38.982Z,124.99
2023-04-18T07:06:38.980Z,126.00
2023-04-18T07:07:38.983Z,123.24
2023-04-18T07:08:38.015Z,121.91
2023-04-18T07:09:38.955Z,123.19
2023-04-18T07:10:39.059Z,126.73
2023-04-18T07:11:38.944Z,127.46
2023-04-18T07:12:37.934Z,127.12
2023-04-18T07:13:37.913Z,128.33
2023-04-18T07:14:37.911Z,121.51
2023-04-18T07:15:38.972Z,118.66
2023-04-18T07:16:39.026Z,118.40
2023-04-18T07:17:39.044Z,117.31
2023-04-18T07:18:39.076Z,116.90
2023-04-18T07:19:39.129Z,118.10
2023-04-18T07:20:39.181Z,113.52
2023-04-18T07:21:39.236Z,112.57
2023-04-18T07:22:39.300Z,111.54
2023-04-18T07:23:39.346Z,111.61
2023-04-18T07:24:39.648Z,108.49
2023-04-18T07:25:39.486Z,107.60
2023-04-18T07:26:39.534Z,104.95
2023-04-18T07:27:38.587Z,102.79
2023-04-18T07:28:39.659Z,100.95
2023-04-18T07:29:38.716Z,99.13
2023-04-18T07:30:39.801Z,99.59
2023-04-18T07:31:38.818Z,100.65
2023-04-18T07:32:39.892Z,99.48
2023-04-18T07:33:39.927Z,98.44
2023-04-18T07:34:39.957Z,99.43
2023-04-18T07:35:40.006Z,102.99
2023-04-18T07:36:40.044Z,105.11
2023-04-18T07:37:39.095Z,109.30
2023-04-18T07:38:40.142Z,113.75
2023-04-18T07:39:40.174Z,116.70
2023-04-18T07:40:39.309Z,118.95
2023-04-18T07:41:40.258Z,118.24
2023-04-18T07:42:40.301Z,119.58
2023-04-18T07:43:40.346Z,126.19
2023-04-18T07:44:40.346Z,129.35
2023-04-18T07:45:39.384Z,128.95
2023-04-18T07:46:40.485Z,128.63
2023-04-18T07:47:39.410Z,135.95
2023-04-18T07:48:40.447Z,97.89
2023-04-18T07:49:40.513Z,87.46
2023-04-18T07:50:39.610Z,86.02
2023-04-18T07:51:40.477Z,64.60
2023-04-18T07:52:39.686Z,39.75
2023-04-18T07:53:40.541Z,31.09
2023-04-18T07:54:39.548Z,29.84
2023-04-18T07:55:40.596Z,38.48
2023-04-18T07:56:40.773Z,43.20
2023-04-18T07:57:40.661Z,45.38
2023-04-18T07:58:40.680Z,47.62
2023-04-18T07:59:40.714Z,51.89
2023-04-18T08:00:40.715Z,50.70
2023-04-18T08:01:40.743Z,47.35
2023-04-18T08:02:40.898Z,49.53
2023-04-18T08:03:40.950Z,55.90
2023-04-18T08:04:41.231Z,56.77
2023-04-18T08:05:40.998Z,59.29
2023-04-18T08:06:40.015Z,66.90
2023-04-18T08:07:40.084Z,71.84
2023-04-18T08:08:40.125Z,76.64
2023-04-18T08:09:40.237Z,79.75
2023-04-18T08:10:40.191Z,81.75
2023-04-18T08:11:41.269Z,87.91
2023-04-18T08:12:40.490Z,88.43
2023-04-18T08:13:41.323Z,91.47
2023-04-18T08:14:41.369Z,95.60
2023-04-18T08:15:40.405Z,95.52
2023-04-18T08:16:40.506Z,100.98
2023-04-18T08:17:40.525Z,104.28
2023-04-18T08:18:41.512Z,108.94
2023-04-18T08:19:41.535Z,112.29
2023-04-18T08:20:41.583Z,115.38
2023-04-18T08:21:41.603Z,115.73
2023-04-18T08:22:57.786Z,121.53
2023-04-18T08:23:41.619Z,121.77
2023-04-18T08:24:44.545Z,122.89
2023-04-18T08:25:41.633Z,122.19
2023-04-18T08:26:40.593Z,124.57
2023-04-18T08:27:41.605Z,127.91
2023-04-18T08:28:42.260Z,135.33
2023-04-18T08:29:41.742Z,122.47
2023-04-18T08:30:40.775Z,125.25
2023-04-18T08:31:41.871Z,130.84
2023-04-18T08:32:41.813Z,138.58
2023-04-18T08:33:41.746Z,152.42
2023-04-18T08:34:41.761Z,154.56
2023-04-18T08:35:40.811Z,158.63
2023-04-18T08:36:41.833Z,156.43
2023-04-18T08:37:40.835Z,163.10
2023-04-18T08:38:41.855Z,167.60
2023-04-18T08:39:40.854Z,168.30
2023-04-18T08:40:41.884Z,173.32
2023-04-18T08:41:41.879Z,173.12
2023-04-18T08:42:41.869Z,176.01
2023-04-18T08:43:41.895Z,181.52
2023-04-18T08:44:40.927Z,181.11
2023-04-18T08:45:42.164Z,189.16
2023-04-18T08:46:41.914Z,193.39
2023-04-18T08:47:41.976Z,197.26
2023-04-18T08:48:41.909Z,201.38
2023-04-18T08:49:41.926Z,207.51
2023-04-18T08:50:41.940Z,215.66
2023-04-18T08:51:40.950Z,220.35
2023-04-18T08:52:41.972Z,184.39
2023-04-18T08:53:42.077Z,145.24
2023-04-18T08:54:42.084Z,123.85
2023-04-18T08:55:42.083Z,95.92
2023-04-18T08:56:42.612Z,72.51
2023-04-18T08:57:41.168Z,77.37
2023-04-18T08:58:41.200Z,81.61
2023-04-18T08:59:43.755Z,97.05
2023-04-18T09:00:42.483Z,92.41
2023-04-18T09:01:42.241Z,43.71
2023-04-18T09:02:42.449Z,35.76
2023-04-18T09:03:41.244Z,37.54
2023-04-18T09:04:41.224Z,45.97
2023-04-18T09:05:41.196Z,53.80
2023-04-18T09:06:42.177Z,64.65
2023-04-18T09:07:41.173Z,75.01
2023-04-18T09:08:42.160Z,61.69
2023-04-18T09:09:41.165Z,52.36
2023-04-18T09:10:41.154Z,68.79
2023-04-18T09:11:41.139Z,48.36
2023-04-18T09:12:42.130Z,51.43
2023-04-18T09:13:42.111Z,53.38
2023-04-18T09:14:42.115Z,53.97
2023-04-18T09:15:41.092Z,34.53
2023-04-18T09:16:42.199Z,28.21
2023-04-18T09:17:42.094Z,38.49
2023-04-18T09:18:42.080Z,45.22
2023-04-18T09:19:42.062Z,49.59
2023-04-18T09:20:42.104Z,53.24
2023-04-18T09:21:42.153Z,55.45
2023-04-18T09:22:42.256Z,53.85
2023-04-18T09:23:42.265Z,48.90
2023-04-18T09:24:42.320Z,53.65
2023-04-18T09:25:44.560Z,53.22
2023-04-18T09:26:42.396Z,51.55
2023-04-18T09:27:42.433Z,49.49
2023-04-18T09:28:42.418Z,50.17
2023-04-18T09:29:42.368Z,48.66
2023-04-18T09:30:42.485Z,47.72
2023-04-18T09:31:41.348Z,43.76
2023-04-18T09:32:42.420Z,43.46
2023-04-18T09:33:41.318Z,43.29
2023-04-18T09:34:42.320Z,43.71
2023-04-18T09:35:42.324Z,41.56
2023-04-18T09:36:41.346Z,44.10
2023-04-18T09:37:42.301Z,40.92
2023-04-18T09:38:41.376Z,40.86
2023-04-18T09:39:42.281Z,41.38
2023-04-18T09:40:42.294Z,41.44
2023-04-18T09:41:41.290Z,39.57
2023-04-18T09:42:41.274Z,42.31
2023-04-18T09:43:42.253Z,41.93
2023-04-18T09:44:42.244Z,39.37
2023-04-18T09:45:42.239Z,40.49
2023-04-18T09:46:45.152Z,21.69
2023-04-18T09:47:42.389Z,19.87
2023-04-18T09:48:42.376Z,17.56
2023-04-18T09:49:42.380Z,21.75
2023-04-18T09:50:41.429Z,22.15
2023-04-18T09:51:42.617Z,24.31
2023-04-18T09:52:42.560Z,29.27
2023-04-18T09:53:42.600Z,30.39
2023-04-18T09:54:41.655Z,34.05
2023-04-18T09:55:42.718Z,36.97
2023-04-18T09:56:42.105Z,39.10
2023-04-18T09:57:41.842Z,44.07
2023-04-18T09:58:42.875Z,42.36
2023-04-18T09:59:42.935Z,42.53
2023-04-18T10:00:41.984Z,42.41
2023-04-18T10:01:43.076Z,41.73
2023-04-18T10:02:43.197Z,45.53
2023-04-18T10:03:43.243Z,44.73
2023-04-18T10:04:43.472Z,32.54
2023-04-18T10:05:42.444Z,34.04
2023-04-18T10:06:43.364Z,28.97
2023-04-18T10:07:43.411Z,31.86
2023-04-18T10:08:43.494Z,33.90
2023-04-18T10:09:43.542Z,34.15
2023-04-18T10:10:43.616Z,35.46
2023-04-18T10:11:42.685Z,33.04
2023-04-18T10:12:42.748Z,29.36
2023-04-18T10:13:43.805Z,31.62
2023-04-18T10:14:43.855Z,28.59
2023-04-18T10:15:44.469Z,29.93
2023-04-18T10:16:44.016Z,34.54
2023-04-18T10:17:56.059Z,29.10
2023-04-18T10:18:44.035Z,29.31
2023-04-18T10:19:44.007Z,30.37
2023-04-18T10:20:44.297Z,32.08
2023-04-18T10:21:43.995Z,33.19
2023-04-18T10:22:43.994Z,34.01
2023-04-18T10:23:43.988Z,22.70
2023-04-18T10:24:42.986Z,33.52
2023-04-18T10:25:43.977Z,27.26
2023-04-18T10:26:42.984Z,31.85
2023-04-18T10:27:43.979Z,34.48
2023-04-18T10:28:43.951Z,37.64
2023-04-18T10:29:43.940Z,34.21
2023-04-18T10:30:42.929Z,39.16
2023-04-18T10:31:42.958Z,27.72
2023-04-18T10:32:43.941Z,32.77
2023-04-18T10:33:46.946Z,30.52
2023-04-18T10:34:43.926Z,30.71
2023-04-18T10:35:43.901Z,30.62
2023-04-18T10:36:42.912Z,30.61
2023-04-18T10:37:43.890Z,31.26
2023-04-18T10:38:43.993Z,32.46
2023-04-18T10:39:43.874Z,31.34
2023-04-18T10:40:43.860Z,32.00
2023-04-18T10:41:44.131Z,30.33
2023-04-18T10:42:43.852Z,25.58
2023-04-18T10:43:43.843Z,22.33
2023-04-18T10:44:42.833Z,29.22
2023-04-18T10:45:43.866Z,26.76
2023-04-18T10:46:44.191Z,25.61
2023-04-18T10:47:44.010Z,25.00
2023-04-18T10:48:42.810Z,29.24
2023-04-18T10:49:42.825Z,25.47
2023-04-18T10:50:43.797Z,29.58
2023-04-18T10:51:43.799Z,36.97
2023-04-18T10:52:42.797Z,34.51
2023-04-18T10:53:42.777Z,29.39
2023-04-18T10:54:42.790Z,34.73
2023-04-18T10:55:43.755Z,25.90
2023-04-18T10:56:43.783Z,27.20
2023-04-18T10:57:43.732Z,25.42
2023-04-18T10:58:42.740Z,29.02
2023-04-18T10:59:43.779Z,25.65
2023-04-18T11:00:43.777Z,25.00
2023-04-18T11:01:42.733Z,25.41
2023-04-18T11:02:43.869Z,25.00
2023-04-18T11:03:43.834Z,25.00
2023-04-18T11:04:43.690Z,25.89
2023-04-18T11:05:42.684Z,25.61
2023-04-18T11:06:42.670Z,25.47
2023-04-18T11:07:43.661Z,25.40
2023-04-18T11:08:43.697Z,25.37
2023-04-18T11:09:45.473Z,25.00
2023-04-18T11:10:43.652Z,25.00
2023-04-18T11:11:42.638Z,26.74
2023-04-18T11:12:42.623Z,27.92
2023-04-18T11:13:43.632Z,27.10
2023-04-18T11:14:42.619Z,27.96
2023-04-18T11:15:42.616Z,26.03
2023-04-18T11:16:43.678Z,25.53
2023-04-18T11:17:43.631Z,30.56
2023-04-18T11:18:43.576Z,29.41
2023-04-18T11:19:43.569Z,29.91
2023-04-18T11:20:43.574Z,31.04
2023-04-18T11:21:43.587Z,44.01
2023-04-18T11:22:43.565Z,45.17
2023-04-18T11:23:42.568Z,49.38
2023-04-18T11:24:43.689Z,52.31
2023-04-18T11:25:43.547Z,60.32
2023-04-18T11:26:43.541Z,64.05
2023-04-18T11:27:43.544Z,64.05
2023-04-18T11:28:43.553Z,65.41
2023-04-18T11:29:42.513Z,73.03
2023-04-18T11:30:43.513Z,72.45
2023-04-18T11:31:42.525Z,80.13
2023-04-18T11:32:43.535Z,78.26
2023-04-18T11:33:43.488Z,82.40
2023-04-18T11:34:43.534Z,85.37
2023-04-18T11:35:43.465Z,86.28
2023-04-18T11:36:42.469Z,80.68
2023-04-18T11:37:44.193Z,82.94
2023-04-18T11:38:42.463Z,87.63
2023-04-18T11:39:43.443Z,84.99
2023-04-18T11:40:43.477Z,73.61
2023-04-18T11:41:43.418Z,76.09
2023-04-18T11:42:42.454Z,73.60
2023-04-18T11:43:42.401Z,78.32
2023-04-18T11:44:42.397Z,73.27
2023-04-18T11:45:42.432Z,77.16
2023-04-18T11:46:43.386Z,75.04
2023-04-18T11:47:43.472Z,79.86
2023-04-18T11:48:42.361Z,82.11
2023-04-18T11:49:42.345Z,79.45
2023-04-18T11:50:42.348Z,81.41
2023-04-18T11:51:42.346Z,83.66
2023-04-18T11:52:43.352Z,83.55
2023-04-18T11:53:43.351Z,86.56
2023-04-18T11:54:43.333Z,91.22
2023-04-18T11:55:43.352Z,85.79
2023-04-18T11:56:43.336Z,80.86
2023-04-18T11:57:42.385Z,72.25
2023-04-18T11:58:42.296Z,64.38
2023-04-18T11:59:43.289Z,63.19
2023-04-18T12:00:43.296Z,71.91
2023-04-18T12:01:43.311Z,76.45
2023-04-18T12:02:43.494Z,65.92
2023-04-18T12:03:42.521Z,58.68
2023-04-18T12:04:42.575Z,53.83
2023-04-18T12:05:42.600Z,56.32
2023-04-18T12:06:43.429Z,60.21
2023-04-18T12:07:42.506Z,61.14
2023-04-18T12:08:43.489Z,66.30
2023-04-18T12:09:43.507Z,63.99
2023-04-18T12:10:42.541Z,60.18
2023-04-18T12:11:43.559Z,56.99
2023-04-18T12:12:42.618Z,58.63
2023-04-18T12:13:42.618Z,60.36
2023-04-18T12:14:42.662Z,58.07
2023-04-18T12:15:44.768Z,58.70
2023-04-18T12:16:42.691Z,56.13
2023-04-18T12:17:43.756Z,52.04
2023-04-18T12:18:42.755Z,50.21
2023-04-18T12:19:43.785Z,65.01
2023-04-18T12:20:43.806Z,62.95
2023-04-18T12:21:42.842Z,69.96
2023-04-18T12:22:43.890Z,68.15
2023-04-18T12:23:43.877Z,72.83
2023-04-18T12:24:42.916Z,75.43
2023-04-18T12:25:42.940Z,73.12
2023-04-18T12:26:43.960Z,55.33
2023-04-18T12:27:43.999Z,49.65
2023-04-18T12:28:43.117Z,43.76
2023-04-18T12:29:43.079Z,45.86
2023-04-18T12:30:44.111Z,48.84
2023-04-18T12:31:43.152Z,53.33
2023-04-18T12:32:43.187Z,54.22
2023-04-18T12:33:43.207Z,43.72
2023-04-18T12:34:43.241Z,43.23
2023-04-18T12:35:44.279Z,45.39
2023-04-18T12:36:44.330Z,48.89
2023-04-18T12:37:43.359Z,52.59
2023-04-18T12:38:44.425Z,58.22
2023-04-18T12:39:43.408Z,60.15
2023-04-18T12:40:44.447Z,66.99
2023-04-18T12:41:44.453Z,73.01
2023-04-18T12:42:43.479Z,76.34
2023-04-18T12:43:44.502Z,78.81
2023-04-18T12:44:45.849Z,78.50
2023-04-18T12:45:43.520Z,78.58
2023-04-18T12:46:43.574Z,79.11
2023-04-18T12:47:43.524Z,80.61